»·PEaware :: N245LG KBFL-KSBA

N245LG :: KBFL-KSBA

FLIGHT INFORMATION

Flight Status: Arrived
Operator: Privately registered:
United States
More flights under this callsign
Pilot: Erik A. (17503)
Aircraft: CESSNA 172 SKYHAWK
(C172)
More flights by this aircraft type
Origin: KBFL Meadows
United States
Destination: KSBA Santa Barbara Mun
United States
More flights between these airports :: More routes between these airports
Route: +MEADO3 RZS
File this flight plan on PilotEdge
Remarks:
Altitude:
(Current/Filed)
9,500ft
Speed:
(Current/Filed)
110kts
Departed: 02-Jan-18 11:34 AM
Arrived: 02-Jan-18 01:10 PM
Distance/Time
Traveled:
72nm/1:36
Distance/Time
To Go:
Arrived

Flight Plot

Page will automatically refresh every two minutes.

Flight plan parsing failed; only flown route is shown


Map Options




Map Legend


Flown Route
Filed Route
Departure Airport
Arrival Airport
Navaid (VOR, NDB)
Fix

Horizontal Profiles

Position Reports

Time Latitude Longitude Heading Altitude Ground
Speed
02-Jan-18 11:00 35.435703 -119.052446 178 510ft 0kts
02-Jan-18 11:01 35.435703 -119.052446 178 510ft 0kts
02-Jan-18 11:02 35.435703 -119.052446 178 510ft 0kts
02-Jan-18 11:03 35.435703 -119.052446 178 510ft 0kts
02-Jan-18 11:04 35.435703 -119.052446 178 510ft 0kts
02-Jan-18 11:05 35.435703 -119.052446 178 510ft 0kts
02-Jan-18 11:06 35.435703 -119.052446 178 510ft 0kts
02-Jan-18 11:07 35.435703 -119.052446 178 510ft 0kts
02-Jan-18 11:08 35.435703 -119.052446 178 510ft 0kts
02-Jan-18 11:09 35.435703 -119.052446 178 510ft 0kts
02-Jan-18 11:10 35.435703 -119.052446 178 510ft 0kts
02-Jan-18 11:11 35.435703 -119.052446 178 510ft 0kts
02-Jan-18 11:12 35.435703 -119.052446 178 510ft 0kts
02-Jan-18 11:13 35.435703 -119.052446 178 510ft 0kts
02-Jan-18 11:14 35.435703 -119.052446 178 510ft 0kts
02-Jan-18 11:15 35.435703 -119.052446 178 510ft 0kts
02-Jan-18 11:16 35.435703 -119.052446 178 510ft 0kts
02-Jan-18 11:17 35.435703 -119.052446 178 510ft 0kts
02-Jan-18 11:18 35.435703 -119.052446 178 510ft 0kts
02-Jan-18 11:19 35.435703 -119.052446 178 510ft 0kts
02-Jan-18 11:20 35.435703 -119.052446 178 510ft 0kts
02-Jan-18 11:21 35.435703 -119.052446 178 510ft 0kts
02-Jan-18 11:22 35.435701 -119.052446 178 510ft 0kts
02-Jan-18 11:23 35.435698 -119.052446 178 510ft 0kts
02-Jan-18 11:24 35.435696 -119.052446 178 510ft 0kts
02-Jan-18 11:25 35.435693 -119.052446 178 510ft 0kts
02-Jan-18 11:26 35.435667 -119.052447 183 510ft 0kts
02-Jan-18 11:27 35.435081 -119.053913 227 510ft 0kts
02-Jan-18 11:28 35.435079 -119.053916 227 510ft 0kts
02-Jan-18 11:29 35.435078 -119.053918 227 510ft 0kts
02-Jan-18 11:30 35.435076 -119.053920 227 510ft 0kts
02-Jan-18 11:31 35.435025 -119.053988 227 510ft 2kts
02-Jan-18 11:32 35.433398 -119.053382 134 510ft 12kts
02-Jan-18 11:33 35.430511 -119.049918 135 510ft 16kts
02-Jan-18 11:34 35.427137 -119.045856 135 510ft 17kts
02-Jan-18 11:35 35.425748 -119.044770 228 510ft 0kts
02-Jan-18 11:36 35.425745 -119.044774 228 510ft 0kts
02-Jan-18 11:37 35.425741 -119.044780 228 510ft 0kts
02-Jan-18 11:38 35.425736 -119.044785 228 510ft 0kts
02-Jan-18 11:39 35.425415 -119.045768 279 510ft 10kts
02-Jan-18 11:40 35.437424 -119.060389 309 902ft 77kts
02-Jan-18 11:41 35.454786 -119.083032 317 1382ft 103kts
02-Jan-18 11:42 35.475477 -119.104473 316 2012ft 99kts
02-Jan-18 11:43 35.494919 -119.127653 316 2583ft 98kts
02-Jan-18 11:44 35.514111 -119.151663 322 3109ft 100kts
02-Jan-18 11:45 35.533344 -119.175112 301 3647ft 99kts
02-Jan-18 11:46 35.518187 -119.199063 205 4148ft 94kts
02-Jan-18 11:47 35.494688 -119.213729 202 4685ft 89kts
02-Jan-18 11:48 35.473440 -119.226440 204 5238ft 86kts
02-Jan-18 11:49 35.453311 -119.238794 206 5779ft 79kts
02-Jan-18 11:50 35.433929 -119.252059 199 6244ft 79kts
02-Jan-18 11:51 35.414013 -119.265076 204 6679ft 82kts
02-Jan-18 11:52 35.394134 -119.278842 202 7104ft 83kts
02-Jan-18 11:53 35.373765 -119.292303 202 7517ft 83kts
02-Jan-18 11:54 35.353185 -119.305312 200 7900ft 83kts
02-Jan-18 11:55 35.332497 -119.318414 202 8275ft 83kts
02-Jan-18 11:56 35.311949 -119.332281 205 8639ft 84kts
02-Jan-18 11:57 35.291748 -119.347290 204 8985ft 85kts
02-Jan-18 11:58 35.270379 -119.359740 200 9320ft 85kts
02-Jan-18 11:59 35.248795 -119.371023 196 9646ft 84kts
02-Jan-18 12:00 35.227563 -119.383390 197 9957ft 84kts
02-Jan-18 12:01 35.202744 -119.393191 188 10038ft 104kts
02-Jan-18 12:02 35.173615 -119.400435 191 10108ft 111kts
02-Jan-18 12:03 35.142441 -119.413021 197 9953ft 118kts
02-Jan-18 12:04 35.113346 -119.430647 207 9905ft 117kts
02-Jan-18 12:05 35.086253 -119.450437 205 9947ft 111kts
02-Jan-18 12:06 35.058990 -119.468482 205 9959ft 111kts
02-Jan-18 12:07 35.031587 -119.485471 199 9977ft 110kts
02-Jan-18 12:08 35.003401 -119.499641 194 10213ft 108kts
02-Jan-18 12:09 34.970992 -119.513281 194 10170ft 133kts
02-Jan-18 12:10 34.935533 -119.527671 198 9970ft 132kts
02-Jan-18 12:11 34.904605 -119.548476 209 9924ft 125kts
02-Jan-18 12:12 34.874994 -119.568312 206 9940ft 116kts
02-Jan-18 12:13 34.845825 -119.584055 197 10040ft 114kts
02-Jan-18 12:14 34.815854 -119.603342 204 10001ft 126kts
02-Jan-18 12:15 34.784397 -119.621868 203 9878ft 122kts
02-Jan-18 12:16 34.755395 -119.639760 200 9985ft 117kts
02-Jan-18 12:17 34.724232 -119.656728 201 10009ft 126kts
02-Jan-18 12:18 34.692423 -119.672466 198 9895ft 118kts
02-Jan-18 12:19 34.663223 -119.689444 202 9711ft 112kts
02-Jan-18 12:20 34.633603 -119.707707 198 9345ft 122kts
02-Jan-18 12:21 34.602001 -119.723109 195 9094ft 121kts
02-Jan-18 12:22 34.569869 -119.735779 190 8861ft 120kts
02-Jan-18 12:23 34.541451 -119.754638 216 8864ft 115kts
02-Jan-18 12:24 34.535090 -119.793934 271 8277ft 125kts
02-Jan-18 12:25 34.537914 -119.835479 272 7596ft 120kts
02-Jan-18 12:26 34.541828 -119.875934 270 6976ft 119kts
02-Jan-18 12:27 34.545000 -119.916067 270 6414ft 119kts
02-Jan-18 12:28 34.547275 -119.955284 273 6009ft 110kts
02-Jan-18 12:29 34.548183 -119.992169 268 5954ft 108kts
02-Jan-18 12:30 34.551129 -120.028575 278 5933ft 112kts
02-Jan-18 12:31 34.543264 -120.063081 236 5649ft 108kts
02-Jan-18 12:32 34.531771 -120.095823 216 5241ft 105kts
02-Jan-18 12:33 34.505540 -120.098887 177 4629ft 91kts
02-Jan-18 12:34 34.480776 -120.098549 159 3915ft 87kts
02-Jan-18 12:35 34.456021 -120.093962 175 3504ft 87kts
02-Jan-18 12:36 34.431709 -120.095016 175 3444ft 83kts
02-Jan-18 12:37 34.423747 -120.072257 89 3063ft 84kts
02-Jan-18 12:38 34.424558 -120.044336 86 2737ft 74kts
02-Jan-18 12:39 34.424798 -120.019821 91 2681ft 75kts
02-Jan-18 12:40 34.426072 -119.992455 87 2231ft 84kts
02-Jan-18 12:41 34.425327 -119.964268 98 1698ft 86kts
02-Jan-18 12:42 34.425402 -119.934811 87 1393ft 88kts
02-Jan-18 12:43 34.426792 -119.907453 91 1083ft 74kts
02-Jan-18 12:44 34.427142 -119.882639 90 565ft 72kts
02-Jan-18 12:45 34.427514 -119.858233 91 190ft 76kts
02-Jan-18 12:46 34.428841 -119.828172 90 814ft 87kts
02-Jan-18 12:47 34.421179 -119.804333 154 1585ft 74kts
02-Jan-18 12:48 34.402574 -119.792132 166 2291ft 72kts
02-Jan-18 12:49 34.383414 -119.798915 156 2857ft 77kts
02-Jan-18 12:50 34.363633 -119.789972 143 3448ft 77kts
02-Jan-18 12:51 34.350031 -119.771552 119 3997ft 77kts
02-Jan-18 12:52 34.336245 -119.788719 250 4119ft 105kts
02-Jan-18 12:53 34.331387 -119.825021 248 4023ft 116kts
02-Jan-18 12:54 34.312005 -119.853386 213 4067ft 101kts
02-Jan-18 12:55 34.286219 -119.868516 198 4051ft 101kts
02-Jan-18 12:56 34.273622 -119.897088 262 4050ft 108kts
02-Jan-18 12:57 34.270393 -119.933258 265 4054ft 109kts
02-Jan-18 12:58 34.267913 -119.969669 261 4071ft 108kts
02-Jan-18 12:59 34.263888 -120.005745 258 4082ft 108kts
02-Jan-18 13:00 34.261172 -120.042014 264 4099ft 108kts
02-Jan-18 13:01 34.259270 -120.078239 261 4101ft 108kts
02-Jan-18 13:02 34.278525 -120.095105 4 4098ft 100kts
02-Jan-18 13:03 34.307230 -120.097476 356 3799ft 104kts
02-Jan-18 13:04 34.335572 -120.101602 356 3395ft 103kts
02-Jan-18 13:05 34.362522 -120.103700 359 3453ft 92kts
02-Jan-18 13:06 34.389336 -120.104371 2 3526ft 98kts
02-Jan-18 13:07 34.416729 -120.104385 9 3580ft 97kts
02-Jan-18 13:08 34.422787 -120.075997 90 3134ft 99kts
02-Jan-18 13:09 34.422994 -120.044376 88 2706ft 92kts
02-Jan-18 13:10 34.423642 -120.019090 92 2672ft 90kts
02-Jan-18 13:11 34.424016 -119.981718 87 2205ft 96kts
02-Jan-18 13:12 34.425462 -119.954349 88 1757ft 97kts
02-Jan-18 13:13 34.425629 -119.920329 87 1157ft 101kts
02-Jan-18 13:14 34.426399 -119.888651 86 705ft 78kts
02-Jan-18 13:15 34.427331 -119.861784 86 223ft 81kts
02-Jan-18 13:16 34.427205 -119.841509 161 13ft 10kts
02-Jan-18 13:17 34.426918 -119.841432 165 13ft 0kts
02-Jan-18 13:18 34.426913 -119.841430 165 13ft 0kts
02-Jan-18 13:19 34.426723 -119.838656 88 13ft 1kts
02-Jan-18 13:20 34.425230 -119.837896 164 13ft 18kts
02-Jan-18 13:21 34.422940 -119.836447 262 13ft 0kts
02-Jan-18 13:22 34.422940 -119.836449 262 13ft 0kts
02-Jan-18 13:23 34.422940 -119.836450 262 13ft 0kts

Navigation Log

Ident Type
Flight plan parsing failed, navigation log unavailable